sensor_id;sensor_type;location;lat;lon;timestamp;pressure;altitude;pressure_sealevel;temperature
67966;BMP280;54749;47.850;9.002;2023-05-19T00:01:22;96234.19;;;11.14
67966;BMP280;54749;47.850;9.002;2023-05-19T00:03:53;96241.13;;;11.12
67966;BMP280;54749;47.850;9.002;2023-05-19T00:06:22;96233.63;;;11.10
67966;BMP280;54749;47.850;9.002;2023-05-19T00:08:56;96223.63;;;11.09
67966;BMP280;54749;47.850;9.002;2023-05-19T00:11:25;96221.31;;;11.06
67966;BMP280;54749;47.850;9.002;2023-05-19T00:13:53;96219.69;;;11.05
67966;BMP280;54749;47.850;9.002;2023-05-19T00:16:22;96212.44;;;11.01
67966;BMP280;54749;47.850;9.002;2023-05-19T00:18:50;96223.59;;;10.98
67966;BMP280;54749;47.850;9.002;2023-05-19T00:21:18;96208.63;;;10.95
67966;BMP280;54749;47.850;9.002;2023-05-19T00:23:45;96213.00;;;10.93
67966;BMP280;54749;47.850;9.002;2023-05-19T00:26:12;96215.78;;;10.90
67966;BMP280;54749;47.850;9.002;2023-05-19T00:28:49;96215.97;;;10.87
67966;BMP280;54749;47.850;9.002;2023-05-19T00:31:17;96220.34;;;10.85
67966;BMP280;54749;47.850;9.002;2023-05-19T00:33:44;96216.44;;;10.82
67966;BMP280;54749;47.850;9.002;2023-05-19T00:36:11;96219.97;;;10.79
67966;BMP280;54749;47.850;9.002;2023-05-19T00:38:38;96203.31;;;10.77
67966;BMP280;54749;47.850;9.002;2023-05-19T00:41:06;96211.00;;;10.75
67966;BMP280;54749;47.850;9.002;2023-05-19T00:43:33;96216.38;;;10.71
67966;BMP280;54749;47.850;9.002;2023-05-19T00:46:01;96207.19;;;10.70
67966;BMP280;54749;47.850;9.002;2023-05-19T00:48:28;96219.94;;;10.68
67966;BMP280;54749;47.850;9.002;2023-05-19T00:50:56;96209.22;;;10.65
67966;BMP280;54749;47.850;9.002;2023-05-19T00:53:29;96207.03;;;10.61
67966;BMP280;54749;47.850;9.002;2023-05-19T00:55:57;96204.63;;;10.59
67966;BMP280;54749;47.850;9.002;2023-05-19T00:58:24;96206.25;;;10.60
67966;BMP280;54749;47.850;9.002;2023-05-19T01:00:57;96213.13;;;10.58
67966;BMP280;54749;47.850;9.002;2023-05-19T01:03:31;96213.34;;;10.55
67966;BMP280;54749;47.850;9.002;2023-05-19T01:06:05;96210.34;;;10.50
67966;BMP280;54749;47.850;9.002;2023-05-19T01:08:34;96206.19;;;10.50
67966;BMP280;54749;47.850;9.002;2023-05-19T01:11:06;96198.84;;;10.47
67966;BMP280;54749;47.850;9.002;2023-05-19T01:13:34;96214.91;;;10.46
67966;BMP280;54749;47.850;9.002;2023-05-19T01:16:13;96194.78;;;10.44
67966;BMP280;54749;47.850;9.002;2023-05-19T01:18:53;96194.44;;;10.38
67966;BMP280;54749;47.850;9.002;2023-05-19T01:24:42;96210.81;;;10.32
67966;BMP280;54749;47.850;9.002;2023-05-19T01:30:16;96197.72;;;10.28
67966;BMP280;54749;47.850;9.002;2023-05-19T01:32:49;96201.13;;;10.27
67966;BMP280;54749;47.850;9.002;2023-05-19T01:35:21;96199.75;;;10.23
67966;BMP280;54749;47.850;9.002;2023-05-19T01:37:56;96197.34;;;10.21
67966;BMP280;54749;47.850;9.002;2023-05-19T01:40:25;96194.03;;;10.21
67966;BMP280;54749;47.850;9.002;2023-05-19T01:42:55;96188.25;;;10.19
67966;BMP280;54749;47.850;9.002;2023-05-19T01:45:26;96197.78;;;10.15
67966;BMP280;54749;47.850;9.002;2023-05-19T01:47:56;96186.03;;;10.15
67966;BMP280;54749;47.850;9.002;2023-05-19T01:50:24;96194.53;;;10.14
67966;BMP280;54749;47.850;9.002;2023-05-19T01:52:51;96192.22;;;10.11
67966;BMP280;54749;47.850;9.002;2023-05-19T01:55:18;96187.41;;;10.08
67966;BMP280;54749;47.850;9.002;2023-05-19T02:00:47;96167.53;;;10.03
67966;BMP280;54749;47.850;9.002;2023-05-19T02:03:25;96191.75;;;10.06
67966;BMP280;54749;47.850;9.002;2023-05-19T02:08:29;96173.56;;;10.01
67966;BMP280;54749;47.850;9.002;2023-05-19T02:11:02;96182.06;;;10.00
67966;BMP280;54749;47.850;9.002;2023-05-19T02:13:36;96178.84;;;9.98
67966;BMP280;54749;47.850;9.002;2023-05-19T02:16:04;96182.50;;;9.94
67966;BMP280;54749;47.850;9.002;2023-05-19T02:18:32;96186.75;;;9.94
67966;BMP280;54749;47.850;9.002;2023-05-19T02:21:00;96193.50;;;9.93
67966;BMP280;54749;47.850;9.002;2023-05-19T02:23:27;96185.25;;;9.91
67966;BMP280;54749;47.850;9.002;2023-05-19T02:25:56;96192.00;;;9.91
67966;BMP280;54749;47.850;9.002;2023-05-19T02:28:24;96198.06;;;9.88
67966;BMP280;54749;47.850;9.002;2023-05-19T02:30:54;96179.72;;;9.86
67966;BMP280;54749;47.850;9.002;2023-05-19T02:33:21;96188.41;;;9.82
67966;BMP280;54749;47.850;9.002;2023-05-19T02:35:52;96179.91;;;9.83
67966;BMP280;54749;47.850;9.002;2023-05-19T02:38:19;96183.34;;;9.82
67966;BMP280;54749;47.850;9.002;2023-05-19T02:40:47;96181.16;;;9.78
67966;BMP280;54749;47.850;9.002;2023-05-19T02:43:14;96174.34;;;9.79
67966;BMP280;54749;47.850;9.002;2023-05-19T02:45:41;96164.25;;;9.79
67966;BMP280;54749;47.850;9.002;2023-05-19T02:48:09;96166.97;;;9.76
67966;BMP280;54749;47.850;9.002;2023-05-19T02:50:36;96163.84;;;9.72
67966;BMP280;54749;47.850;9.002;2023-05-19T02:53:03;96172.44;;;9.70
67966;BMP280;54749;47.850;9.002;2023-05-19T02:55:30;96174.94;;;9.70
67966;BMP280;54749;47.850;9.002;2023-05-19T02:57:58;96172.66;;;9.67
67966;BMP280;54749;47.850;9.002;2023-05-19T03:00:25;96172.16;;;9.62
67966;BMP280;54749;47.850;9.002;2023-05-19T03:02:52;96188.31;;;9.60
67966;BMP280;54749;47.850;9.002;2023-05-19T03:05:20;96169.03;;;9.59
67966;BMP280;54749;47.850;9.002;2023-05-19T03:07:47;96165.78;;;9.57
67966;BMP280;54749;47.850;9.002;2023-05-19T03:10:14;96180.94;;;9.57
67966;BMP280;54749;47.850;9.002;2023-05-19T03:12:41;96156.50;;;9.57
67966;BMP280;54749;47.850;9.002;2023-05-19T03:15:09;96163.41;;;9.55
67966;BMP280;54749;47.850;9.002;2023-05-19T03:17:39;96176.19;;;9.52
67966;BMP280;54749;47.850;9.002;2023-05-19T03:20:06;96174.63;;;9.51
67966;BMP280;54749;47.850;9.002;2023-05-19T03:22:34;96178.03;;;9.50
67966;BMP280;54749;47.850;9.002;2023-05-19T03:25:01;96181.47;;;9.49
67966;BMP280;54749;47.850;9.002;2023-05-19T03:27:29;96173.31;;;9.46
67966;BMP280;54749;47.850;9.002;2023-05-19T03:29:57;96171.69;;;9.45
67966;BMP280;54749;47.850;9.002;2023-05-19T03:32:24;96168.34;;;9.44
67966;BMP280;54749;47.850;9.002;2023-05-19T03:34:51;96162.63;;;9.43
67966;BMP280;54749;47.850;9.002;2023-05-19T03:37:19;96169.28;;;9.44
67966;BMP280;54749;47.850;9.002;2023-05-19T03:39:46;96180.97;;;9.44
67966;BMP280;54749;47.850;9.002;2023-05-19T03:42:13;96176.13;;;9.42
67966;BMP280;54749;47.850;9.002;2023-05-19T03:44:40;96179.56;;;9.41
67966;BMP280;54749;47.850;9.002;2023-05-19T03:47:08;96182.81;;;9.43
67966;BMP280;54749;47.850;9.002;2023-05-19T03:49:55;96180.28;;;9.43
67966;BMP280;54749;47.850;9.002;2023-05-19T03:52:47;96177.75;;;9.43
67966;BMP280;54749;47.850;9.002;2023-05-19T03:55:24;96176.94;;;9.42
67966;BMP280;54749;47.850;9.002;2023-05-19T03:57:51;96182.00;;;9.42
67966;BMP280;54749;47.850;9.002;2023-05-19T04:00:18;96172.00;;;9.41
67966;BMP280;54749;47.850;9.002;2023-05-19T04:02:46;96172.81;;;9.41
67966;BMP280;54749;47.850;9.002;2023-05-19T04:05:13;96180.16;;;9.44
67966;BMP280;54749;47.850;9.002;2023-05-19T04:07:41;96172.50;;;9.45
67966;BMP280;54749;47.850;9.002;2023-05-19T04:10:09;96167.03;;;9.51
67966;BMP280;54749;47.850;9.002;2023-05-19T04:12:36;96171.88;;;9.54
67966;BMP280;54749;47.850;9.002;2023-05-19T04:15:03;96172.78;;;9.53
67966;BMP280;54749;47.850;9.002;2023-05-19T04:17:32;96161.78;;;9.54
67966;BMP280;54749;47.850;9.002;2023-05-19T04:19:59;96166.72;;;9.56
67966;BMP280;54749;47.850;9.002;2023-05-19T04:22:27;96165.13;;;9.55
67966;BMP280;54749;47.850;9.002;2023-05-19T04:24:54;96161.38;;;9.60
67966;BMP280;54749;47.850;9.002;2023-05-19T04:27:23;96160.94;;;9.66
67966;BMP280;54749;47.850;9.002;2023-05-19T04:29:50;96149.63;;;9.71
67966;BMP280;54749;47.850;9.002;2023-05-19T04:32:17;96147.22;;;9.82
67966;BMP280;54749;47.850;9.002;2023-05-19T04:34:45;96165.38;;;9.87
67966;BMP280;54749;47.850;9.002;2023-05-19T04:37:18;96169.38;;;9.89
67966;BMP280;54749;47.850;9.002;2023-05-19T04:39:46;96179.47;;;9.89
67966;BMP280;54749;47.850;9.002;2023-05-19T04:42:14;96170.78;;;9.93
67966;BMP280;54749;47.850;9.002;2023-05-19T04:44:46;96151.06;;;9.98
67966;BMP280;54749;47.850;9.002;2023-05-19T04:47:15;96169.91;;;10.05
67966;BMP280;54749;47.850;9.002;2023-05-19T04:49:43;96158.75;;;10.19
67966;BMP280;54749;47.850;9.002;2023-05-19T04:52:12;96168.22;;;10.28
67966;BMP280;54749;47.850;9.002;2023-05-19T04:54:39;96155.84;;;10.36
67966;BMP280;54749;47.850;9.002;2023-05-19T04:57:10;96167.81;;;10.45
67966;BMP280;54749;47.850;9.002;2023-05-19T04:59:38;96162.19;;;10.52
67966;BMP280;54749;47.850;9.002;2023-05-19T05:02:07;96174.31;;;10.59
67966;BMP280;54749;47.850;9.002;2023-05-19T05:04:36;96175.31;;;10.57
67966;BMP280;54749;47.850;9.002;2023-05-19T05:07:03;96185.41;;;10.57
67966;BMP280;54749;47.850;9.002;2023-05-19T05:09:31;96171.44;;;10.64
67966;BMP280;54749;47.850;9.002;2023-05-19T05:12:01;96167.00;;;10.78
67966;BMP280;54749;47.850;9.002;2023-05-19T05:14:29;96174.38;;;10.81
67966;BMP280;54749;47.850;9.002;2023-05-19T05:16:56;96151.63;;;10.81
67966;BMP280;54749;47.850;9.002;2023-05-19T05:19:24;96167.03;;;10.88
67966;BMP280;54749;47.850;9.002;2023-05-19T05:21:53;96158.06;;;10.95
67966;BMP280;54749;47.850;9.002;2023-05-19T05:24:20;96160.84;;;11.03
67966;BMP280;54749;47.850;9.002;2023-05-19T05:26:52;96172.81;;;11.22
67966;BMP280;54749;47.850;9.002;2023-05-19T05:29:19;96164.22;;;11.25
67966;BMP280;54749;47.850;9.002;2023-05-19T05:31:47;96183.66;;;11.35
67966;BMP280;54749;47.850;9.002;2023-05-19T05:34:15;96172.19;;;11.42
67966;BMP280;54749;47.850;9.002;2023-05-19T05:36:42;96170.13;;;11.47
67966;BMP280;54749;47.850;9.002;2023-05-19T05:39:09;96157.41;;;11.79
67966;BMP280;54749;47.850;9.002;2023-05-19T05:41:39;96154.81;;;12.11
67966;BMP280;54749;47.850;9.002;2023-05-19T05:44:10;96155.03;;;12.08
67966;BMP280;54749;47.850;9.002;2023-05-19T05:46:40;96156.63;;;12.20
67966;BMP280;54749;47.850;9.002;2023-05-19T05:49:08;96166.13;;;12.38
67966;BMP280;54749;47.850;9.002;2023-05-19T05:51:36;96165.91;;;12.71
67966;BMP280;54749;47.850;9.002;2023-05-19T05:54:05;96173.94;;;12.76
67966;BMP280;54749;47.850;9.002;2023-05-19T05:56:36;96168.16;;;12.43
67966;BMP280;54749;47.850;9.002;2023-05-19T05:59:06;96172.13;;;12.37
67966;BMP280;54749;47.850;9.002;2023-05-19T06:01:33;96182.44;;;12.14
67966;BMP280;54749;47.850;9.002;2023-05-19T06:04:07;96177.47;;;12.12
67966;BMP280;54749;47.850;9.002;2023-05-19T06:06:34;96172.66;;;12.20
67966;BMP280;54749;47.850;9.002;2023-05-19T06:09:04;96174.22;;;12.21
67966;BMP280;54749;47.850;9.002;2023-05-19T06:11:32;96168.25;;;12.22
67966;BMP280;54749;47.850;9.002;2023-05-19T06:13:59;96187.84;;;12.20
67966;BMP280;54749;47.850;9.002;2023-05-19T06:16:44;96184.53;;;12.40
67966;BMP280;54749;47.850;9.002;2023-05-19T06:19:15;96177.31;;;12.35
67966;BMP280;54749;47.850;9.002;2023-05-19T06:21:43;96182.72;;;12.31
67966;BMP280;54749;47.850;9.002;2023-05-19T06:24:10;96179.84;;;12.35
67966;BMP280;54749;47.850;9.002;2023-05-19T06:26:38;96188.75;;;12.61
67966;BMP280;54749;47.850;9.002;2023-05-19T06:29:05;96177.84;;;12.80
67966;BMP280;54749;47.850;9.002;2023-05-19T06:31:33;96175.31;;;12.80
67966;BMP280;54749;47.850;9.002;2023-05-19T06:34:08;96181.34;;;12.68
67966;BMP280;54749;47.850;9.002;2023-05-19T06:36:38;96181.72;;;12.53
67966;BMP280;54749;47.850;9.002;2023-05-19T06:39:08;96186.44;;;12.27
67966;BMP280;54749;47.850;9.002;2023-05-19T06:41:35;96175.78;;;12.43
67966;BMP280;54749;47.850;9.002;2023-05-19T06:44:05;96178.84;;;12.47
67966;BMP280;54749;47.850;9.002;2023-05-19T06:46:32;96187.34;;;12.26
67966;BMP280;54749;47.850;9.002;2023-05-19T06:49:00;96174.81;;;12.25
67966;BMP280;54749;47.850;9.002;2023-05-19T06:51:31;96169.41;;;12.18
67966;BMP280;54749;47.850;9.002;2023-05-19T06:53:58;96160.63;;;12.33
67966;BMP280;54749;47.850;9.002;2023-05-19T06:56:26;96176.19;;;12.28
67966;BMP280;54749;47.850;9.002;2023-05-19T06:58:54;96186.19;;;12.30
67966;BMP280;54749;47.850;9.002;2023-05-19T07:01:28;96182.13;;;12.38
67966;BMP280;54749;47.850;9.002;2023-05-19T07:03:57;96182.47;;;12.44
67966;BMP280;54749;47.850;9.002;2023-05-19T07:06:24;96184.75;;;12.47
67966;BMP280;54749;47.850;9.002;2023-05-19T07:08:52;96171.56;;;12.33
67966;BMP280;54749;47.850;9.002;2023-05-19T07:11:20;96159.53;;;12.46
67966;BMP280;54749;47.850;9.002;2023-05-19T07:13:47;96178.13;;;12.56
67966;BMP280;54749;47.850;9.002;2023-05-19T07:16:21;96171.69;;;12.62
67966;BMP280;54749;47.850;9.002;2023-05-19T07:18:48;96172.78;;;12.80
67966;BMP280;54749;47.850;9.002;2023-05-19T07:21:16;96181.59;;;13.05
67966;BMP280;54749;47.850;9.002;2023-05-19T07:23:43;96168.75;;;12.97
67966;BMP280;54749;47.850;9.002;2023-05-19T07:26:10;96164.84;;;13.13
67966;BMP280;54749;47.850;9.002;2023-05-19T07:28:37;96166.56;;;13.33
67966;BMP280;54749;47.850;9.002;2023-05-19T07:31:08;96156.66;;;13.10
67966;BMP280;54749;47.850;9.002;2023-05-19T07:33:35;96172.16;;;13.36
67966;BMP280;54749;47.850;9.002;2023-05-19T07:36:02;96177.13;;;13.67
67966;BMP280;54749;47.850;9.002;2023-05-19T07:38:30;96164.16;;;14.08
67966;BMP280;54749;47.850;9.002;2023-05-19T07:41:01;96155.66;;;14.37
67966;BMP280;54749;47.850;9.002;2023-05-19T07:43:28;96157.38;;;14.64
67966;BMP280;54749;47.850;9.002;2023-05-19T07:45:56;96135.00;;;14.68
67966;BMP280;54749;47.850;9.002;2023-05-19T07:48:23;96143.06;;;14.91
67966;BMP280;54749;47.850;9.002;2023-05-19T07:50:52;96141.16;;;15.02
67966;BMP280;54749;47.850;9.002;2023-05-19T07:53:19;96143.47;;;15.41
67966;BMP280;54749;47.850;9.002;2023-05-19T07:55:46;96142.84;;;15.20
67966;BMP280;54749;47.850;9.002;2023-05-19T07:58:14;96151.06;;;15.05
67966;BMP280;54749;47.850;9.002;2023-05-19T08:00:41;96144.13;;;14.79
67966;BMP280;54749;47.850;9.002;2023-05-19T08:03:09;96151.31;;;15.02
67966;BMP280;54749;47.850;9.002;2023-05-19T08:05:36;96149.34;;;15.41
67966;BMP280;54749;47.850;9.002;2023-05-19T08:08:04;96158.91;;;15.30
67966;BMP280;54749;47.850;9.002;2023-05-19T08:10:31;96152.69;;;14.78
67966;BMP280;54749;47.850;9.002;2023-05-19T08:12:58;96122.88;;;15.25
67966;BMP280;54749;47.850;9.002;2023-05-19T08:15:26;96145.13;;;15.94
67966;BMP280;54749;47.850;9.002;2023-05-19T08:17:53;96132.34;;;16.20
67966;BMP280;54749;47.850;9.002;2023-05-19T08:20:21;96135.22;;;16.34
67966;BMP280;54749;47.850;9.002;2023-05-19T08:22:48;96125.94;;;15.90
67966;BMP280;54749;47.850;9.002;2023-05-19T08:25:16;96138.50;;;15.75
67966;BMP280;54749;47.850;9.002;2023-05-19T08:27:45;96139.53;;;15.81
67966;BMP280;54749;47.850;9.002;2023-05-19T08:30:12;96111.06;;;15.86
67966;BMP280;54749;47.850;9.002;2023-05-19T08:32:40;96128.19;;;15.93
67966;BMP280;54749;47.850;9.002;2023-05-19T08:35:08;96130.88;;;16.01
67966;BMP280;54749;47.850;9.002;2023-05-19T08:37:35;96125.28;;;15.62
67966;BMP280;54749;47.850;9.002;2023-05-19T08:40:04;96126.63;;;16.35
67966;BMP280;54749;47.850;9.002;2023-05-19T08:42:32;96096.72;;;17.04
67966;BMP280;54749;47.850;9.002;2023-05-19T08:45:01;96107.16;;;17.35
67966;BMP280;54749;47.850;9.002;2023-05-19T08:47:28;96106.88;;;18.34
67966;BMP280;54749;47.850;9.002;2023-05-19T08:50:03;96076.84;;;18.91
67966;BMP280;54749;47.850;9.002;2023-05-19T08:52:38;96048.41;;;19.39
67966;BMP280;54749;47.850;9.002;2023-05-19T08:55:14;96072.84;;;19.57
67966;BMP280;54749;47.850;9.002;2023-05-19T08:57:43;96069.69;;;19.55
67966;BMP280;54749;47.850;9.002;2023-05-19T09:00:11;96081.59;;;19.25
67966;BMP280;54749;47.850;9.002;2023-05-19T09:02:39;96079.06;;;19.17
67966;BMP280;54749;47.850;9.002;2023-05-19T09:05:27;96071.81;;;21.20
67966;BMP280;54749;47.850;9.002;2023-05-19T09:07:54;96059.31;;;21.59
67966;BMP280;54749;47.850;9.002;2023-05-19T09:10:22;96085.38;;;21.28
67966;BMP280;54749;47.850;9.002;2023-05-19T09:12:49;96060.25;;;21.30
67966;BMP280;54749;47.850;9.002;2023-05-19T09:15:17;96084.31;;;21.37
67966;BMP280;54749;47.850;9.002;2023-05-19T09:17:45;96076.75;;;21.00
67966;BMP280;54749;47.850;9.002;2023-05-19T09:20:15;96064.88;;;21.49
67966;BMP280;54749;47.850;9.002;2023-05-19T09:22:43;96067.41;;;21.06
67966;BMP280;54749;47.850;9.002;2023-05-19T09:25:17;96086.94;;;20.28
67966;BMP280;54749;47.850;9.002;2023-05-19T09:27:46;96089.25;;;20.15
67966;BMP280;54749;47.850;9.002;2023-05-19T09:30:17;96077.25;;;21.03
67966;BMP280;54749;47.850;9.002;2023-05-19T09:32:45;96046.94;;;22.32
67966;BMP280;54749;47.850;9.002;2023-05-19T09:35:15;96059.94;;;22.65
67966;BMP280;54749;47.850;9.002;2023-05-19T09:37:43;96064.97;;;22.52
67966;BMP280;54749;47.850;9.002;2023-05-19T09:40:13;96060.28;;;22.21
67966;BMP280;54749;47.850;9.002;2023-05-19T09:42:41;96085.09;;;21.66
67966;BMP280;54749;47.850;9.002;2023-05-19T09:45:09;96070.81;;;21.77
67966;BMP280;54749;47.850;9.002;2023-05-19T09:47:39;96067.88;;;21.52
67966;BMP280;54749;47.850;9.002;2023-05-19T09:50:09;96088.91;;;20.70
67966;BMP280;54749;47.850;9.002;2023-05-19T09:52:37;96085.19;;;20.28
67966;BMP280;54749;47.850;9.002;2023-05-19T09:55:09;96082.72;;;20.64
67966;BMP280;54749;47.850;9.002;2023-05-19T09:57:36;96081.50;;;20.74
67966;BMP280;54749;47.850;9.002;2023-05-19T10:00:08;96072.25;;;21.38
67966;BMP280;54749;47.850;9.002;2023-05-19T10:02:41;96075.75;;;20.87
67966;BMP280;54749;47.850;9.002;2023-05-19T10:05:11;96082.16;;;19.95
67966;BMP280;54749;47.850;9.002;2023-05-19T10:07:39;96084.38;;;19.68
67966;BMP280;54749;47.850;9.002;2023-05-19T10:10:08;96086.66;;;19.56
67966;BMP280;54749;47.850;9.002;2023-05-19T10:12:37;96080.41;;;19.58
67966;BMP280;54749;47.850;9.002;2023-05-19T10:15:16;96076.50;;;19.17
67966;BMP280;54749;47.850;9.002;2023-05-19T10:17:48;96088.53;;;18.85
67966;BMP280;54749;47.850;9.002;2023-05-19T10:20:16;96083.72;;;18.90
67966;BMP280;54749;47.850;9.002;2023-05-19T10:22:45;96085.81;;;18.94
67966;BMP280;54749;47.850;9.002;2023-05-19T10:25:12;96074.00;;;19.54
67966;BMP280;54749;47.850;9.002;2023-05-19T10:27:45;96090.13;;;19.70
67966;BMP280;54749;47.850;9.002;2023-05-19T10:30:15;96096.66;;;19.20
67966;BMP280;54749;47.850;9.002;2023-05-19T10:32:45;96092.38;;;18.81
67966;BMP280;54749;47.850;9.002;2023-05-19T10:35:35;96074.25;;;19.06
67966;BMP280;54749;47.850;9.002;2023-05-19T10:38:15;96076.31;;;19.26
67966;BMP280;54749;47.850;9.002;2023-05-19T10:41:00;96069.16;;;18.91
67966;BMP280;54749;47.850;9.002;2023-05-19T10:46:11;96092.53;;;18.57
67966;BMP280;54749;47.850;9.002;2023-05-19T10:48:43;96088.38;;;18.79
67966;BMP280;54749;47.850;9.002;2023-05-19T10:51:10;96098.31;;;18.82
67966;BMP280;54749;47.850;9.002;2023-05-19T10:53:42;96093.97;;;18.98
67966;BMP280;54749;47.850;9.002;2023-05-19T10:56:31;96096.84;;;18.72
67966;BMP280;54749;47.850;9.002;2023-05-19T10:59:01;96090.91;;;18.56
67966;BMP280;54749;47.850;9.002;2023-05-19T11:01:31;96084.97;;;18.63
67966;BMP280;54749;47.850;9.002;2023-05-19T11:04:07;96091.06;;;18.39
67966;BMP280;54749;47.850;9.002;2023-05-19T11:06:37;96091.81;;;18.31
67966;BMP280;54749;47.850;9.002;2023-05-19T11:09:17;96087.41;;;18.64
67966;BMP280;54749;47.850;9.002;2023-05-19T11:11:53;96064.16;;;19.05
67966;BMP280;54749;47.850;9.002;2023-05-19T11:14:27;96067.44;;;19.44
67966;BMP280;54749;47.850;9.002;2023-05-19T11:16:58;96061.53;;;19.51
67966;BMP280;54749;47.850;9.002;2023-05-19T11:19:29;96070.94;;;19.59
67966;BMP280;54749;47.850;9.002;2023-05-19T11:22:11;96069.09;;;19.14
67966;BMP280;54749;47.850;9.002;2023-05-19T11:24:47;96082.56;;;18.46
67966;BMP280;54749;47.850;9.002;2023-05-19T11:27:33;96080.28;;;17.96
67966;BMP280;54749;47.850;9.002;2023-05-19T11:30:07;96091.91;;;17.91
67966;BMP280;54749;47.850;9.002;2023-05-19T11:32:38;96090.41;;;17.81
67966;BMP280;54749;47.850;9.002;2023-05-19T11:35:08;96096.84;;;17.52
67966;BMP280;54749;47.850;9.002;2023-05-19T11:37:36;96097.31;;;17.48
67966;BMP280;54749;47.850;9.002;2023-05-19T11:40:04;96102.69;;;17.45
67966;BMP280;54749;47.850;9.002;2023-05-19T11:42:34;96093.72;;;17.33
67966;BMP280;54749;47.850;9.002;2023-05-19T11:45:02;96103.53;;;16.96
67966;BMP280;54749;47.850;9.002;2023-05-19T11:47:31;96098.63;;;17.02
67966;BMP280;54749;47.850;9.002;2023-05-19T11:50:21;96105.34;;;17.03
67966;BMP280;54749;47.850;9.002;2023-05-19T11:52:52;96098.69;;;17.10
67966;BMP280;54749;47.850;9.002;2023-05-19T11:55:20;96085.06;;;17.26
67966;BMP280;54749;47.850;9.002;2023-05-19T12:00:38;96091.19;;;17.41
67966;BMP280;54749;47.850;9.002;2023-05-19T12:03:07;96082.88;;;17.39
67966;BMP280;54749;47.850;9.002;2023-05-19T12:05:37;96091.13;;;17.25
67966;BMP280;54749;47.850;9.002;2023-05-19T12:08:10;96082.44;;;17.43
67966;BMP280;54749;47.850;9.002;2023-05-19T12:10:38;96088.59;;;17.66
67966;BMP280;54749;47.850;9.002;2023-05-19T12:13:05;96101.03;;;18.01
67966;BMP280;54749;47.850;9.002;2023-05-19T12:15:36;96092.41;;;17.94
67966;BMP280;54749;47.850;9.002;2023-05-19T12:18:03;96115.75;;;17.34
67966;BMP280;54749;47.850;9.002;2023-05-19T12:20:31;96090.25;;;17.42
67966;BMP280;54749;47.850;9.002;2023-05-19T12:23:02;96099.06;;;17.47
67966;BMP280;54749;47.850;9.002;2023-05-19T12:25:30;96090.00;;;17.60
67966;BMP280;54749;47.850;9.002;2023-05-19T12:27:59;96103.41;;;17.54
67966;BMP280;54749;47.850;9.002;2023-05-19T12:30:30;96091.16;;;17.66
67966;BMP280;54749;47.850;9.002;2023-05-19T12:33:00;96095.44;;;17.57
67966;BMP280;54749;47.850;9.002;2023-05-19T12:35:31;96111.00;;;17.39
67966;BMP280;54749;47.850;9.002;2023-05-19T12:38:04;96121.31;;;17.05
67966;BMP280;54749;47.850;9.002;2023-05-19T12:40:32;96110.09;;;16.98
67966;BMP280;54749;47.850;9.002;2023-05-19T12:43:02;96128.72;;;16.74
67966;BMP280;54749;47.850;9.002;2023-05-19T12:45:35;96123.44;;;16.75
67966;BMP280;54749;47.850;9.002;2023-05-19T12:48:04;96124.91;;;16.78
67966;BMP280;54749;47.850;9.002;2023-05-19T12:50:32;96121.00;;;16.49
67966;BMP280;54749;47.850;9.002;2023-05-19T12:53:00;96124.13;;;16.43
67966;BMP280;54749;47.850;9.002;2023-05-19T12:55:28;96115.72;;;16.67
67966;BMP280;54749;47.850;9.002;2023-05-19T12:57:56;96115.81;;;16.92
67966;BMP280;54749;47.850;9.002;2023-05-19T13:00:24;96109.09;;;16.74
67966;BMP280;54749;47.850;9.002;2023-05-19T13:03:00;96105.06;;;16.72
67966;BMP280;54749;47.850;9.002;2023-05-19T13:05:29;96109.31;;;16.64
67966;BMP280;54749;47.850;9.002;2023-05-19T13:07:59;96108.03;;;16.43
67966;BMP280;54749;47.850;9.002;2023-05-19T13:10:28;96105.16;;;16.29
67966;BMP280;54749;47.850;9.002;2023-05-19T13:12:57;96108.59;;;16.37
67966;BMP280;54749;47.850;9.002;2023-05-19T13:15:30;96096.50;;;16.22
67966;BMP280;54749;47.850;9.002;2023-05-19T13:18:02;96101.75;;;16.20
67966;BMP280;54749;47.850;9.002;2023-05-19T13:20:29;96107.22;;;16.25
67966;BMP280;54749;47.850;9.002;2023-05-19T13:22:57;96109.69;;;16.00
67966;BMP280;54749;47.850;9.002;2023-05-19T13:25:24;96105.59;;;15.81
67966;BMP280;54749;47.850;9.002;2023-05-19T13:27:52;96096.81;;;15.93
67966;BMP280;54749;47.850;9.002;2023-05-19T13:30:20;96097.06;;;15.99
67966;BMP280;54749;47.850;9.002;2023-05-19T13:32:48;96088.56;;;15.81
67966;BMP280;54749;47.850;9.002;2023-05-19T13:35:15;96094.25;;;15.76
67966;BMP280;54749;47.850;9.002;2023-05-19T13:37:42;96093.13;;;15.78
67966;BMP280;54749;47.850;9.002;2023-05-19T13:40:10;96085.69;;;15.94
67966;BMP280;54749;47.850;9.002;2023-05-19T13:42:39;96087.69;;;16.16
67966;BMP280;54749;47.850;9.002;2023-05-19T13:45:07;96092.28;;;16.30
67966;BMP280;54749;47.850;9.002;2023-05-19T13:47:34;96087.19;;;16.30
67966;BMP280;54749;47.850;9.002;2023-05-19T13:50:02;96090.16;;;16.43
67966;BMP280;54749;47.850;9.002;2023-05-19T13:52:30;96079.50;;;16.64
67966;BMP280;54749;47.850;9.002;2023-05-19T13:54:57;96095.47;;;16.66
67966;BMP280;54749;47.850;9.002;2023-05-19T13:57:25;96086.84;;;16.67
67966;BMP280;54749;47.850;9.002;2023-05-19T13:59:55;96074.28;;;16.90
67966;BMP280;54749;47.850;9.002;2023-05-19T14:02:37;96090.16;;;16.84
67966;BMP280;54749;47.850;9.002;2023-05-19T14:05:05;96079.28;;;16.75
67966;BMP280;54749;47.850;9.002;2023-05-19T14:07:33;96084.13;;;16.44
67966;BMP280;54749;47.850;9.002;2023-05-19T14:10:02;96079.44;;;16.56
67966;BMP280;54749;47.850;9.002;2023-05-19T14:12:31;96080.69;;;16.52
67966;BMP280;54749;47.850;9.002;2023-05-19T14:15:19;96082.06;;;16.47
67966;BMP280;54749;47.850;9.002;2023-05-19T14:17:46;96087.81;;;16.66
67966;BMP280;54749;47.850;9.002;2023-05-19T14:20:17;96090.06;;;16.69
67966;BMP280;54749;47.850;9.002;2023-05-19T14:22:45;96078.59;;;16.73
67966;BMP280;54749;47.850;9.002;2023-05-19T14:25:11;96084.44;;;16.83
67966;BMP280;54749;47.850;9.002;2023-05-19T14:27:39;96089.69;;;16.64
67966;BMP280;54749;47.850;9.002;2023-05-19T14:30:06;96085.50;;;16.80
67966;BMP280;54749;47.850;9.002;2023-05-19T14:32:34;96085.19;;;16.92
67966;BMP280;54749;47.850;9.002;2023-05-19T14:35:01;96097.13;;;16.75
67966;BMP280;54749;47.850;9.002;2023-05-19T14:37:29;96095.69;;;16.55
67966;BMP280;54749;47.850;9.002;2023-05-19T14:39:58;96096.06;;;16.09
67966;BMP280;54749;47.850;9.002;2023-05-19T14:42:25;96106.56;;;16.23